createdAt,value
2018-04-02T00:00:42.803Z,66.60
2018-04-02T00:03:10.624Z,67.00
2018-04-02T00:05:38.254Z,66.80
2018-04-02T00:08:05.928Z,67.20
2018-04-02T00:10:34.436Z,67.60
2018-04-02T00:13:02.188Z,67.70
2018-04-02T00:15:30.008Z,67.80
2018-04-02T00:17:57.805Z,67.50
2018-04-02T00:20:25.446Z,67.70
2018-04-02T00:22:53.105Z,67.40
2018-04-02T00:25:20.652Z,67.60
2018-04-02T00:27:48.214Z,67.40
2018-04-02T00:30:15.882Z,66.70
2018-04-02T00:32:43.565Z,67.20
2018-04-02T00:35:11.372Z,67.20
2018-04-02T00:37:39.047Z,66.20
2018-04-02T00:40:06.822Z,66.20
2018-04-02T00:42:35.179Z,66.60
2018-04-02T00:45:02.966Z,65.80
2018-04-02T00:47:31.667Z,65.90
2018-04-02T00:49:59.393Z,65.20
2018-04-02T00:52:27.183Z,65.30
2018-04-02T00:54:54.949Z,65.80
2018-04-02T00:57:22.621Z,64.60
2018-04-02T00:59:50.277Z,65.30
2018-04-02T01:02:18.860Z,65.70
2018-04-02T01:04:46.608Z,65.40
2018-04-02T01:07:14.383Z,64.90
2018-04-02T01:09:42.282Z,64.60
2018-04-02T01:12:11.796Z,64.70
2018-04-02T01:14:39.670Z,64.60
2018-04-02T01:17:07.564Z,64.90
2018-04-02T01:19:35.233Z,65.50
2018-04-02T01:22:02.866Z,65.80
2018-04-02T01:24:30.438Z,66.00
2018-04-02T01:26:58.035Z,67.40
2018-04-02T01:29:25.741Z,67.10
2018-04-02T01:31:53.380Z,68.00
2018-04-02T01:34:20.952Z,68.80
2018-04-02T01:36:48.636Z,68.60
2018-04-02T01:39:16.327Z,69.30
2018-04-02T01:41:44.035Z,70.20
2018-04-02T01:44:11.968Z,70.30
2018-04-02T01:46:40.475Z,71.90
2018-04-02T01:49:08.072Z,71.40
2018-04-02T01:51:37.086Z,71.30
2018-04-02T01:54:04.673Z,72.00
2018-04-02T01:56:32.340Z,72.40
2018-04-02T01:59:00.049Z,72.60
2018-04-02T02:01:27.705Z,73.00
2018-04-02T02:03:56.543Z,73.60
2018-04-02T02:06:24.251Z,73.90
2018-04-02T02:08:51.881Z,75.30
2018-04-02T02:11:20.831Z,75.70
2018-04-02T02:13:48.539Z,76.10
2018-04-02T02:16:16.316Z,76.00
2018-04-02T02:18:44.636Z,77.50
2018-04-02T02:21:12.365Z,77.40
2018-04-02T02:23:40.026Z,77.50
2018-04-02T02:26:07.770Z,78.60
2018-04-02T02:28:36.267Z,79.60
2018-04-02T02:31:03.877Z,79.60
2018-04-02T02:33:31.521Z,80.00
2018-04-02T02:35:59.251Z,81.10
2018-04-02T02:38:26.929Z,80.30
2018-04-02T02:40:55.316Z,80.60
2018-04-02T02:43:23.453Z,80.60
2018-04-02T02:45:51.109Z,79.70
2018-04-02T02:48:18.732Z,79.90
2018-04-02T02:50:46.428Z,78.90
2018-04-02T02:53:14.589Z,78.30
2018-04-02T02:55:42.211Z,77.70
2018-04-02T02:58:10.081Z,77.20
2018-04-02T03:00:37.790Z,77.20
2018-04-02T03:03:05.465Z,76.80
2018-04-02T03:05:33.049Z,76.80
2018-04-02T03:08:01.556Z,76.60
2018-04-02T03:10:29.252Z,77.30
2018-04-02T03:12:56.870Z,76.20
2018-04-02T03:15:24.486Z,76.70
2018-04-02T03:17:52.137Z,76.80
2018-04-02T03:20:19.908Z,76.40
2018-04-02T03:22:47.519Z,76.30
2018-04-02T03:25:15.908Z,76.60
2018-04-02T03:27:43.560Z,76.70
2018-04-02T03:30:11.370Z,76.40
2018-04-02T03:32:39.608Z,76.10
2018-04-02T03:35:07.208Z,75.70
2018-04-02T03:37:34.828Z,75.70
2018-04-02T03:40:02.430Z,75.40
2018-04-02T03:42:30.123Z,75.60
2018-04-02T03:44:58.486Z,76.10
2018-04-02T03:47:26.226Z,75.40
2018-04-02T03:49:53.900Z,75.00
2018-04-02T03:52:21.466Z,75.10
2018-04-02T03:54:49.863Z,75.30
2018-04-02T03:57:17.412Z,75.10
2018-04-02T03:59:44.954Z,75.20
2018-04-02T04:02:12.702Z,74.90
2018-04-02T04:04:41.275Z,74.60
2018-04-02T04:07:08.846Z,74.10
2018-04-02T04:09:39.186Z,74.20
2018-04-02T04:12:06.804Z,74.10
2018-04-02T04:14:34.406Z,74.00
2018-04-02T04:17:02.102Z,72.90
2018-04-02T04:19:29.810Z,73.10
2018-04-02T04:21:58.080Z,73.00
2018-04-02T04:24:25.725Z,73.10
2018-04-02T04:26:53.635Z,72.90
2018-04-02T04:29:21.420Z,72.30
2018-04-02T04:31:49.264Z,71.90
2018-04-02T04:34:17.073Z,72.00
2018-04-02T04:36:45.684Z,71.80
2018-04-02T04:39:13.472Z,71.00
2018-04-02T04:41:41.427Z,71.10
2018-04-02T04:44:09.248Z,70.40
2018-04-02T04:46:37.073Z,70.40
2018-04-02T04:49:05.542Z,70.40
2018-04-02T04:51:34.021Z,69.50
2018-04-02T04:54:01.696Z,69.70
2018-04-02T04:56:29.308Z,68.90
2018-04-02T04:58:57.679Z,69.70
2018-04-02T05:01:25.191Z,69.50
2018-04-02T05:03:53.605Z,69.90
2018-04-02T05:06:21.174Z,70.10
2018-04-02T05:08:48.860Z,70.30
2018-04-02T05:11:17.211Z,70.30
2018-04-02T05:13:44.804Z,70.30
2018-04-02T05:16:12.335Z,70.80
2018-04-02T05:18:39.926Z,70.20
2018-04-02T05:21:07.766Z,70.40
2018-04-02T05:23:36.732Z,70.80
2018-04-02T05:26:04.515Z,70.70
2018-04-02T05:28:32.138Z,70.40
2018-04-02T05:30:59.872Z,70.50
2018-04-02T05:33:27.340Z,70.40
2018-04-02T05:35:55.742Z,68.90
2018-04-02T05:38:23.402Z,68.90
2018-04-02T05:40:51.017Z,68.50
2018-04-02T05:43:19.689Z,68.40
2018-04-02T05:45:47.359Z,68.20
2018-04-02T05:48:15.074Z,67.90
2018-04-02T05:50:42.781Z,67.80
2018-04-02T05:53:11.366Z,67.40
2018-04-02T05:55:39.229Z,67.30
2018-04-02T05:58:06.885Z,67.40
2018-04-02T06:00:34.507Z,66.40
2018-04-02T06:03:02.094Z,64.80
2018-04-02T06:05:29.783Z,65.90
2018-04-02T06:07:57.399Z,64.90
2018-04-02T06:10:25.046Z,66.20
2018-04-02T06:12:52.769Z,66.60
2018-04-02T06:15:20.413Z,65.40
2018-04-02T06:17:47.974Z,65.00
2018-04-02T06:20:15.574Z,65.00
2018-04-02T06:22:43.275Z,65.80
2018-04-02T06:25:13.100Z,64.80
2018-04-02T06:27:40.682Z,64.30
2018-04-02T06:30:08.312Z,63.40
2018-04-02T06:32:35.953Z,64.00
2018-04-02T06:35:03.604Z,64.10
2018-04-02T06:37:31.251Z,62.80
2018-04-02T06:39:58.802Z,63.10
2018-04-02T06:42:26.455Z,62.30
2018-04-02T06:44:54.092Z,62.20
2018-04-02T06:47:21.760Z,62.80
2018-04-02T06:49:49.424Z,62.40
2018-04-02T06:52:17.089Z,61.30
2018-04-02T06:54:45.467Z,62.70
2018-04-02T06:57:14.874Z,61.80
2018-04-02T06:59:42.635Z,61.60
2018-04-02T07:02:10.339Z,60.60
2018-04-02T07:04:37.940Z,62.30
2018-04-02T07:07:05.877Z,60.30
2018-04-02T07:09:33.782Z,60.80
2018-04-02T07:12:01.538Z,59.60
2018-04-02T07:14:29.546Z,59.60
2018-04-02T07:16:57.284Z,59.30
2018-04-02T07:19:25.028Z,59.90
2018-04-02T07:21:52.838Z,58.70
2018-04-02T07:24:20.481Z,58.80
2018-04-02T07:26:48.128Z,59.70
2018-04-02T07:29:15.771Z,58.70
2018-04-02T07:31:43.428Z,58.70
2018-04-02T07:34:11.076Z,56.30
2018-04-02T07:36:38.775Z,57.90
2018-04-02T07:39:06.732Z,58.30
2018-04-02T07:41:34.339Z,58.10
2018-04-02T07:44:02.800Z,56.00
2018-04-02T07:46:30.567Z,56.00
2018-04-02T07:48:58.375Z,55.10
2018-04-02T07:51:26.096Z,54.50
2018-04-02T07:53:54.013Z,54.10
2018-04-02T07:56:21.942Z,53.20
2018-04-02T07:58:50.001Z,53.20
2018-04-02T08:01:17.822Z,52.50
2018-04-02T08:03:46.583Z,52.70
2018-04-02T08:06:15.064Z,53.60
2018-04-02T08:08:43.079Z,53.60
2018-04-02T08:11:10.952Z,52.20
2018-04-02T08:13:38.698Z,52.60
2018-04-02T08:16:06.561Z,53.20
2018-04-02T08:18:34.232Z,53.30
2018-04-02T08:21:02.724Z,53.20
2018-04-02T08:23:30.544Z,53.10
2018-04-02T08:26:00.053Z,53.10
2018-04-02T08:28:27.902Z,52.50
2018-04-02T08:30:56.432Z,50.10
2018-04-02T08:33:24.184Z,50.00
2018-04-02T08:35:51.872Z,50.60
2018-04-02T08:38:19.583Z,49.90
2018-04-02T08:40:48.139Z,49.50
2018-04-02T08:43:16.048Z,49.50
2018-04-02T08:45:43.818Z,48.20
2018-04-02T08:48:11.749Z,48.60
2018-04-02T08:50:39.712Z,48.40
2018-04-02T08:53:07.577Z,47.00
2018-04-02T08:55:35.506Z,49.00
2018-04-02T08:58:03.334Z,48.20
2018-04-02T09:00:31.053Z,46.40
2018-04-02T09:02:58.858Z,47.70
2018-04-02T09:05:27.358Z,46.00
2018-04-02T09:07:55.365Z,46.00
2018-04-02T09:10:23.329Z,47.30
2018-04-02T09:12:51.204Z,48.00
2018-04-02T09:15:18.951Z,46.20
2018-04-02T09:17:47.044Z,45.10
2018-04-02T09:20:14.884Z,43.80
2018-04-02T09:22:43.744Z,45.50
2018-04-02T09:25:11.533Z,45.00
2018-04-02T09:27:40.410Z,43.60
2018-04-02T09:30:08.409Z,44.40
2018-04-02T09:32:36.974Z,43.50
2018-04-02T09:35:04.618Z,43.40
2018-04-02T09:37:32.350Z,45.90
2018-04-02T09:40:01.005Z,42.70
2018-04-02T09:42:28.640Z,42.60
2018-04-02T09:44:56.412Z,41.20
2018-04-02T09:47:24.131Z,41.50
2018-04-02T09:49:51.916Z,39.70
2018-04-02T09:52:19.732Z,41.20
2018-04-02T09:54:47.649Z,39.30
2018-04-02T09:57:15.461Z,40.90
2018-04-02T09:59:43.295Z,40.10
2018-04-02T10:02:13.967Z,39.80
2018-04-02T10:04:43.855Z,39.70
2018-04-02T10:07:11.684Z,41.60
2018-04-02T10:09:40.302Z,40.00
2018-04-02T10:12:10.190Z,37.80
2018-04-02T10:14:37.958Z,39.00
2018-04-02T10:17:05.676Z,37.30
2018-04-02T10:19:33.563Z,38.50
2018-04-02T10:22:01.412Z,36.90
2018-04-02T10:24:29.359Z,39.00
2018-04-02T10:26:57.193Z,39.30
2018-04-02T10:29:26.123Z,37.30
2018-04-02T10:31:55.210Z,37.30
2018-04-02T10:34:23.015Z,39.00
2018-04-02T10:36:51.041Z,38.20
2018-04-02T10:39:18.772Z,37.90
2018-04-02T10:41:46.760Z,37.60
2018-04-02T10:44:14.687Z,38.70
2018-04-02T10:46:43.273Z,37.40
2018-04-02T10:49:12.437Z,37.40
2018-04-02T10:51:40.219Z,38.80
2018-04-02T10:54:08.531Z,38.40
2018-04-02T10:56:36.211Z,37.30
2018-04-02T10:59:05.979Z,39.00
2018-04-02T11:01:33.725Z,38.70
2018-04-02T11:04:01.990Z,38.90
2018-04-02T11:06:31.251Z,38.30
2018-04-02T11:08:59.080Z,38.20
2018-04-02T11:11:26.830Z,38.80
2018-04-02T11:13:54.455Z,36.90
2018-04-02T11:16:22.982Z,35.40
2018-04-02T11:18:50.833Z,35.30
2018-04-02T11:21:18.466Z,36.30
2018-04-02T11:23:47.695Z,37.20
2018-04-02T11:26:15.393Z,37.20
2018-04-02T11:28:43.133Z,37.90
2018-04-02T11:31:10.835Z,35.50
2018-04-02T11:33:38.522Z,36.60
2018-04-02T11:36:06.135Z,34.90
2018-04-02T11:38:33.808Z,36.60
2018-04-02T11:41:01.730Z,34.30
2018-04-02T11:43:29.749Z,37.10
2018-04-02T11:45:57.504Z,36.50
2018-04-02T11:48:26.017Z,36.30
2018-04-02T11:50:54.732Z,34.70
2018-04-02T11:53:22.721Z,34.50
2018-04-02T11:55:50.390Z,33.90
2018-04-02T11:58:18.137Z,34.20
2018-04-02T12:00:45.693Z,33.90
2018-04-02T12:03:13.291Z,32.40
2018-04-02T12:05:40.890Z,33.60
2018-04-02T12:08:09.274Z,32.10
2018-04-02T12:10:36.890Z,32.00
2018-04-02T12:13:04.589Z,31.30
2018-04-02T12:15:32.213Z,33.20
2018-04-02T12:17:59.813Z,33.30
2018-04-02T12:20:28.254Z,32.40
2018-04-02T12:22:55.820Z,32.30
2018-04-02T12:25:23.403Z,31.10
2018-04-02T12:27:50.982Z,31.50
2018-04-02T12:30:18.640Z,33.00
2018-04-02T12:32:46.179Z,33.90
2018-04-02T12:35:14.620Z,32.80
2018-04-02T12:37:42.217Z,32.80
2018-04-02T12:40:09.859Z,32.80
2018-04-02T12:42:38.285Z,30.50
2018-04-02T12:45:06.774Z,30.70
2018-04-02T12:47:34.353Z,30.70
2018-04-02T12:50:02.009Z,30.70
2018-04-02T12:52:29.572Z,32.20
2018-04-02T12:54:57.159Z,30.20
2018-04-02T12:57:24.747Z,31.40
2018-04-02T12:59:52.386Z,30.00
2018-04-02T13:02:19.921Z,31.00
2018-04-02T13:04:47.633Z,30.30
2018-04-02T13:07:16.049Z,31.70
2018-04-02T13:09:44.999Z,31.70
2018-04-02T13:12:12.589Z,31.50
2018-04-02T13:14:40.469Z,29.80
2018-04-02T13:17:08.060Z,32.40
2018-04-02T13:19:35.642Z,31.30
2018-04-02T13:22:04.178Z,30.80
2018-04-02T13:24:31.830Z,30.60
2018-04-02T13:26:59.475Z,30.70
2018-04-02T13:29:27.080Z,30.00
2018-04-02T13:31:54.701Z,31.10
2018-04-02T13:34:22.314Z,31.20
2018-04-02T13:36:50.711Z,29.30
2018-04-02T13:39:18.549Z,29.90
2018-04-02T13:41:47.177Z,30.00
2018-04-02T13:44:15.002Z,29.90
2018-04-02T13:46:42.768Z,29.30
2018-04-02T13:49:10.704Z,30.50
2018-04-02T13:51:38.669Z,30.30
2018-04-02T13:54:06.590Z,30.00
2018-04-02T13:56:34.788Z,30.10
2018-04-02T13:59:03.343Z,31.40
2018-04-02T14:01:31.929Z,32.00
2018-04-02T14:03:59.754Z,32.00
2018-04-02T14:06:27.598Z,30.70
2018-04-02T14:08:55.493Z,31.30
2018-04-02T14:11:23.451Z,31.80
2018-04-02T14:13:51.307Z,30.70
2018-04-02T14:16:19.858Z,30.00
2018-04-02T14:18:48.521Z,29.80
2018-04-02T14:21:16.356Z,29.70
2018-04-02T14:23:44.206Z,30.40
2018-04-02T14:26:11.978Z,30.80
2018-04-02T14:28:39.687Z,31.30
2018-04-02T14:31:07.611Z,31.60
2018-04-02T14:33:35.380Z,30.80
2018-04-02T14:36:03.021Z,32.80
2018-04-02T14:38:30.759Z,30.70
2018-04-02T14:40:58.406Z,31.10
2018-04-02T14:43:26.151Z,29.90
2018-04-02T14:45:53.786Z,30.30
2018-04-02T14:48:21.377Z,31.20
2018-04-02T14:50:49.184Z,30.70
2018-04-02T14:53:17.000Z,30.40
2018-04-02T14:55:44.765Z,30.30
2018-04-02T14:58:13.739Z,30.60
2018-04-02T15:00:41.517Z,29.40
2018-04-02T15:03:09.187Z,29.30
2018-04-02T15:05:37.847Z,31.10
2018-04-02T15:08:05.559Z,30.70
2018-04-02T15:10:33.250Z,30.00
2018-04-02T15:13:00.994Z,30.20
2018-04-02T15:15:29.540Z,30.40
2018-04-02T15:17:57.111Z,31.40
2018-04-02T15:20:24.781Z,30.90
2018-04-02T15:22:52.383Z,30.00
2018-04-02T15:25:20.019Z,31.50
2018-04-02T15:27:47.675Z,31.10
2018-04-02T15:30:15.302Z,32.50
2018-04-02T15:32:43.084Z,31.70
2018-04-02T15:35:10.729Z,32.00
2018-04-02T15:37:38.287Z,33.50
2018-04-02T15:40:05.909Z,32.80
2018-04-02T15:42:35.088Z,32.70
2018-04-02T15:45:02.740Z,32.60
2018-04-02T15:47:30.317Z,32.80
2018-04-02T15:49:57.968Z,32.40
2018-04-02T15:52:25.741Z,33.60
2018-04-02T15:54:53.551Z,33.40
2018-04-02T15:57:21.249Z,33.10
2018-04-02T15:59:49.405Z,34.00
2018-04-02T16:02:17.166Z,33.60
2018-04-02T16:04:44.875Z,34.40
2018-04-02T16:07:12.645Z,34.40
2018-04-02T16:09:41.089Z,34.60
2018-04-02T16:12:08.743Z,34.60
2018-04-02T16:14:36.331Z,34.70
2018-04-02T16:17:04.083Z,35.10
2018-04-02T16:19:31.741Z,35.00
2018-04-02T16:21:59.407Z,36.30
2018-04-02T16:24:27.127Z,35.40
2018-04-02T16:26:54.960Z,35.70
2018-04-02T16:29:22.558Z,36.20
2018-04-02T16:31:50.171Z,36.60
2018-04-02T16:34:17.779Z,36.60
2018-04-02T16:36:45.419Z,37.20
2018-04-02T16:39:13.157Z,37.40
2018-04-02T16:41:40.837Z,37.00
2018-04-02T16:44:09.249Z,38.40
2018-04-02T16:46:36.863Z,38.40
2018-04-02T16:49:04.463Z,38.50
2018-04-02T16:51:32.168Z,39.50
2018-04-02T16:53:59.887Z,39.30
2018-04-02T16:56:28.317Z,40.60
2018-04-02T16:58:55.944Z,40.50
2018-04-02T17:01:23.554Z,40.60
2018-04-02T17:03:51.178Z,40.70
2018-04-02T17:06:18.798Z,40.70
2018-04-02T17:08:47.192Z,41.20
2018-04-02T17:11:14.829Z,41.20
2018-04-02T17:13:42.577Z,40.90
2018-04-02T17:16:10.990Z,41.80
2018-04-02T17:18:38.660Z,41.80
2018-04-02T17:21:06.302Z,41.70
2018-04-02T17:23:34.053Z,41.90
2018-04-02T17:26:02.545Z,42.70
2018-04-02T17:28:31.108Z,43.40
2018-04-02T17:30:58.933Z,43.30
2018-04-02T17:33:26.797Z,43.60
2018-04-02T17:35:54.630Z,43.80
2018-04-02T17:38:24.127Z,44.20
2018-04-02T17:40:51.772Z,44.10
2018-04-02T17:43:19.403Z,45.00
2018-04-02T17:45:47.111Z,44.90
2018-04-02T17:48:14.871Z,45.60
2018-04-02T17:50:42.531Z,45.90
2018-04-02T17:53:10.164Z,45.90
2018-04-02T17:55:37.884Z,45.70
2018-04-02T17:58:05.532Z,45.90
2018-04-02T18:00:33.224Z,46.60
2018-04-02T18:03:00.839Z,47.20
2018-04-02T18:05:28.515Z,47.50
2018-04-02T18:07:56.139Z,48.00
2018-04-02T18:10:23.862Z,48.10
2018-04-02T18:12:51.524Z,48.50
2018-04-02T18:15:19.323Z,48.60
2018-04-02T18:17:47.103Z,49.00
2018-04-02T18:20:14.855Z,49.00
2018-04-02T18:22:42.621Z,48.60
2018-04-02T18:25:10.346Z,48.30
2018-04-02T18:27:38.109Z,48.10
2018-04-02T18:30:06.355Z,48.40
2018-04-02T18:32:34.323Z,48.10
2018-04-02T18:35:02.242Z,48.00
2018-04-02T18:37:30.112Z,48.70
2018-04-02T18:39:57.943Z,48.60
2018-04-02T18:42:25.694Z,48.50
2018-04-02T18:44:53.306Z,48.30
2018-04-02T18:47:21.299Z,47.70
2018-04-02T18:49:49.042Z,47.70
2018-04-02T18:52:16.767Z,47.70
2018-04-02T18:54:44.459Z,47.00
2018-04-02T18:57:12.175Z,47.20
2018-04-02T18:59:40.104Z,47.10
2018-04-02T19:02:08.000Z,47.30
2018-04-02T19:04:35.930Z,47.10
2018-04-02T19:07:04.053Z,47.80
2018-04-02T19:09:32.037Z,48.30
2018-04-02T19:12:00.046Z,48.70
2018-04-02T19:14:28.318Z,48.50
2018-04-02T19:16:56.072Z,48.10
2018-04-02T19:19:24.011Z,49.00
2018-04-02T19:21:51.821Z,48.90
2018-04-02T19:24:19.773Z,48.50
2018-04-02T19:26:47.646Z,48.50
2018-04-02T19:29:16.719Z,48.00
2018-04-02T19:31:45.566Z,48.70
2018-04-02T19:34:14.223Z,49.20
2018-04-02T19:36:42.254Z,48.80
2018-04-02T19:39:10.154Z,49.20
2018-04-02T19:41:38.015Z,49.50
2018-04-02T19:44:05.635Z,49.70
2018-04-02T19:46:34.180Z,50.10
2018-04-02T19:49:02.139Z,50.00
2018-04-02T19:51:30.077Z,51.90
2018-04-02T19:53:58.050Z,51.30
2018-04-02T19:56:26.042Z,53.60
2018-04-02T19:58:53.901Z,52.60
2018-04-02T20:01:21.780Z,52.40
2018-04-02T20:03:49.452Z,53.60
2018-04-02T20:06:17.344Z,54.60
2018-04-02T20:08:45.263Z,56.00
2018-04-02T20:11:13.095Z,54.80
2018-04-02T20:13:41.715Z,56.30
2018-04-02T20:16:10.210Z,56.60
2018-04-02T20:18:38.289Z,56.60
2018-04-02T20:21:06.274Z,57.00
2018-04-02T20:23:34.294Z,57.80
2018-04-02T20:26:03.011Z,58.20
2018-04-02T20:28:30.898Z,58.10
2018-04-02T20:30:58.734Z,57.30
2018-04-02T20:33:26.685Z,57.30
2018-04-02T20:35:54.562Z,57.90
2018-04-02T20:38:22.421Z,58.40
2018-04-02T20:40:50.838Z,59.50
2018-04-02T20:43:18.681Z,58.90
2018-04-02T20:45:46.449Z,59.80
2018-04-02T20:48:14.406Z,60.20
2018-04-02T20:50:42.369Z,60.90
2018-04-02T20:53:11.060Z,60.60
2018-04-02T20:55:38.921Z,60.60
2018-04-02T20:58:06.957Z,61.50
2018-04-02T21:00:34.900Z,61.80
2018-04-02T21:03:02.925Z,62.50
2018-04-02T21:05:30.774Z,63.10
2018-04-02T21:07:59.438Z,64.50
2018-04-02T21:10:27.382Z,64.40
2018-04-02T21:12:55.149Z,65.10
2018-04-02T21:15:22.977Z,65.70
2018-04-02T21:17:51.702Z,64.80
2018-04-02T21:20:19.626Z,64.70
2018-04-02T21:22:47.750Z,64.90
2018-04-02T21:25:15.670Z,65.00
2018-04-02T21:27:43.654Z,65.70
2018-04-02T21:30:11.541Z,65.30
2018-04-02T21:32:39.269Z,67.00
2018-04-02T21:35:07.326Z,66.40
2018-04-02T21:37:35.211Z,66.90
2018-04-02T21:40:04.001Z,67.20
2018-04-02T21:42:31.829Z,67.20
2018-04-02T21:44:59.689Z,68.10
2018-04-02T21:47:27.553Z,68.00
2018-04-02T21:49:55.448Z,67.20
2018-04-02T21:52:23.328Z,67.80
2018-04-02T21:54:51.232Z,68.30
2018-04-02T21:57:18.929Z,68.30
2018-04-02T21:59:47.839Z,67.90
2018-04-02T22:02:16.218Z,69.40
2018-04-02T22:04:44.075Z,69.30
2018-04-02T22:07:13.610Z,69.40
2018-04-02T22:09:45.521Z,69.30
2018-04-02T22:12:13.237Z,70.00
2018-04-02T22:14:41.064Z,69.80
2018-04-02T22:17:08.962Z,69.20
2018-04-02T22:19:38.287Z,70.00
2018-04-02T22:22:06.036Z,69.90
2018-04-02T22:24:34.133Z,70.10
2018-04-02T22:27:02.645Z,70.00
2018-04-02T22:29:30.566Z,70.60
2018-04-02T22:31:58.399Z,70.30
2018-04-02T22:34:26.150Z,70.10
2018-04-02T22:36:53.966Z,70.40
2018-04-02T22:39:21.832Z,71.30
2018-04-02T22:41:49.771Z,71.20
2018-04-02T22:44:17.611Z,71.90
2018-04-02T22:46:45.737Z,71.40
2018-04-02T22:49:13.546Z,70.60
2018-04-02T22:51:41.422Z,72.40
2018-04-02T22:54:09.106Z,72.20
2018-04-02T22:56:36.863Z,72.10
2018-04-02T22:59:04.635Z,72.40
2018-04-02T23:01:32.533Z,73.00
2018-04-02T23:04:00.290Z,72.30
2018-04-02T23:06:28.170Z,72.00
2018-04-02T23:08:55.790Z,72.50
2018-04-02T23:11:23.527Z,72.20
2018-04-02T23:13:51.299Z,72.60
2018-04-02T23:16:19.009Z,72.60
2018-04-02T23:18:46.788Z,72.00
2018-04-02T23:21:14.699Z,72.50
2018-04-02T23:23:42.599Z,72.70
2018-04-02T23:26:10.432Z,72.30
2018-04-02T23:28:38.134Z,72.00
2018-04-02T23:31:06.046Z,72.90
2018-04-02T23:33:33.920Z,73.40
2018-04-02T23:36:01.633Z,73.40
2018-04-02T23:38:30.059Z,73.60
2018-04-02T23:40:58.044Z,73.50
2018-04-02T23:43:25.886Z,74.10
2018-04-02T23:45:53.697Z,73.20
2018-04-02T23:48:22.478Z,73.10
2018-04-02T23:50:50.245Z,73.20
2018-04-02T23:53:18.123Z,73.10
2018-04-02T23:55:46.831Z,73.20
2018-04-02T23:58:15.449Z,73.60
